Time;durP1;ratioP1;P1;durP2;ratioP2;P2;SDS_P1;SDS_P2;PMS_P1;PMS_P2;Temp;Humidity;BMP_temperature;BMP_pressure;BME280_temperature;BME280_humidity;BME280_pressure;Samples;Min_cycle;Max_cycle;Signal;HPM_P1;HPM_P2
2022/01/19 00:00:54;;;;;;;48.55;21.90;;;;;;;-0.06;100.00;103285.00;5053675;28;20029;-83
2022/01/19 00:03:20;;;;;;;45.53;23.17;;;;;;;-0.12;100.00;103275.25;5054637;28;20105;-83
2022/01/19 00:05:45;;;;;;;40.63;21.90;;;;;;;-0.15;100.00;103263.94;5053943;28;20469;-83
2022/01/19 00:08:17;;;;;;;43.75;22.95;;;;;;;-0.15;100.00;103263.94;5052897;28;20349;-84
2022/01/19 00:10:46;;;;;;;46.60;22.88;;;;;;;-0.20;100.00;103261.06;5054324;28;20037;-83
2022/01/19 00:13:12;;;;;;;51.53;24.63;;;;;;;-0.28;100.00;103268.31;5053462;28;20029;-83
2022/01/19 00:15:38;;;;;;;51.08;24.85;;;;;;;-0.28;100.00;103272.56;5053047;28;20043;-83
2022/01/19 00:18:04;;;;;;;48.72;24.48;;;;;;;-0.32;100.00;103268.94;5053869;28;20484;-83
2022/01/19 00:20:31;;;;;;;50.80;24.15;;;;;;;-0.34;100.00;103267.94;5053691;28;20032;-83
2022/01/19 00:22:57;;;;;;;47.53;23.77;;;;;;;-0.38;100.00;103266.00;5052904;28;20476;-83
2022/01/19 00:25:23;;;;;;;38.08;23.00;;;;;;;-0.38;100.00;103254.88;5053949;28;20040;-83
2022/01/19 00:27:49;;;;;;;43.28;23.17;;;;;;;-0.37;100.00;103252.38;5053392;28;20063;-83
2022/01/19 00:30:14;;;;;;;47.20;23.50;;;;;;;-0.42;100.00;103235.88;5053017;28;20378;-83
2022/01/19 00:32:40;;;;;;;44.55;23.23;;;;;;;-0.40;100.00;103221.44;5053933;28;20037;-83
2022/01/19 00:35:06;;;;;;;46.50;23.63;;;;;;;-0.41;100.00;103191.50;5052728;28;20477;-83
2022/01/19 00:37:32;;;;;;;41.85;22.67;;;;;;;-0.46;100.00;103180.06;5053423;28;20040;-83
2022/01/19 00:39:57;;;;;;;53.28;24.38;;;;;;;-0.43;100.00;103177.69;5052377;28;20021;-84
2022/01/19 00:42:23;;;;;;;47.30;23.02;;;;;;;-0.46;100.00;103162.13;5052791;28;20029;-83
2022/01/19 00:44:48;;;;;;;54.47;24.73;;;;;;;-0.52;100.00;103159.25;5053151;28;20499;-83
2022/01/19 00:47:14;;;;;;;49.65;24.85;;;;;;;-0.54;100.00;103168.50;5053168;28;20036;-84
2022/01/19 00:49:42;;;;;;;58.75;25.73;;;;;;;-0.66;100.00;103160.97;5052497;28;20095;-83
2022/01/19 00:52:07;;;;;;;47.30;23.60;;;;;;;-0.66;100.00;103176.34;5053257;28;20028;-83
2022/01/19 00:54:33;;;;;;;60.83;24.08;;;;;;;-0.65;100.00;103190.06;5053134;28;20024;-83
2022/01/19 00:56:58;;;;;;;50.00;24.48;;;;;;;-0.65;100.00;103193.50;5052170;28;20037;-83
2022/01/19 00:59:23;;;;;;;50.80;23.98;;;;;;;-0.66;100.00;103198.50;5053662;28;20025;-83
2022/01/19 01:01:48;;;;;;;50.92;23.77;;;;;;;-0.71;100.00;103194.00;5053162;28;20373;-84
2022/01/19 01:04:14;;;;;;;48.85;23.08;;;;;;;-0.65;100.00;103197.75;5052030;28;20029;-84
2022/01/19 01:06:39;;;;;;;42.78;21.80;;;;;;;-0.65;100.00;103187.50;5052879;28;20025;-84
2022/01/19 01:09:05;;;;;;;44.92;23.02;;;;;;;-0.66;100.00;103186.56;5052942;28;20017;-83
2022/01/19 01:11:35;;;;;;;44.28;23.52;;;;;;;-0.67;100.00;103182.25;5052020;28;20033;-83
2022/01/19 01:19:01;;;;;;;58.10;24.63;;;;;;;-0.71;100.00;103153.03;5051786;28;20064;-83
2022/01/19 01:21:26;;;;;;;54.58;23.83;;;;;;;-0.73;100.00;103141.78;5052836;28;20025;-83
2022/01/19 01:23:52;;;;;;;58.85;25.58;;;;;;;-0.78;100.00;103140.66;5052997;28;20039;-83
2022/01/19 01:26:17;;;;;;;53.60;24.60;;;;;;;-0.85;100.00;103120.59;5051500;28;20036;-84
2022/01/19 01:28:42;;;;;;;58.58;24.75;;;;;;;-0.88;100.00;103112.72;5052489;28;20045;-83
2022/01/19 01:31:10;;;;;;;58.30;23.77;;;;;;;-0.91;100.00;103102.28;5051263;28;20151;-83
2022/01/19 01:33:37;;;;;;;58.00;25.70;;;;;;;-0.89;100.00;103108.38;5032742;28;20041;-83
2022/01/19 01:36:03;;;;;;;59.33;25.52;;;;;;;-0.90;100.00;103104.03;5032710;28;20452;-83
2022/01/19 01:38:29;;;;;;;56.40;25.05;;;;;;;-0.97;100.00;103078.88;5032097;28;20036;-83
2022/01/19 01:40:54;;;;;;;54.03;24.98;;;;;;;-0.97;100.00;103068.63;5035320;28;20029;-83
2022/01/19 01:43:20;;;;;;;52.47;25.23;;;;;;;-0.98;100.00;103057.50;5032939;28;20040;-84
2022/01/19 01:45:48;;;;;;;49.67;25.13;;;;;;;-1.03;100.00;103058.03;5034123;28;20033;-83
2022/01/19 01:48:17;;;;;;;51.35;24.23;;;;;;;-1.09;100.00;103050.84;5051937;28;20055;-83
2022/01/19 01:53:30;;;;;;;46.75;23.77;;;;;;;-1.08;100.00;103061.97;5051769;28;20154;-83
2022/01/19 01:55:58;;;;;;;52.63;23.35;;;;;;;-1.08;100.00;103062.88;5050240;28;20033;-82
2022/01/19 01:58:24;;;;;;;46.42;24.88;;;;;;;-1.11;100.00;103064.34;5052102;28;20040;-83
2022/01/19 02:00:50;;;;;;;56.90;24.58;;;;;;;-1.10;100.00;103063.56;5038983;28;20033;-83
2022/01/19 02:03:16;;;;;;;49.17;23.95;;;;;;;-1.12;100.00;103067.72;5051912;28;20067;-83
2022/01/19 02:05:54;;;;;;;56.22;24.13;;;;;;;-1.13;100.00;103061.72;5051532;28;20167;-83
2022/01/19 02:08:22;;;;;;;49.55;24.17;;;;;;;-1.13;100.00;103040.34;5045193;28;20053;-83
2022/01/19 02:11:05;;;;;;;53.78;24.48;;;;;;;-1.11;100.00;103047.34;5041771;28;20519;-83
2022/01/19 02:16:27;;;;;;;;;;;;;;;-1.11;100.00;103033.63;5052268;28;20392;-84
2022/01/19 02:21:46;;;;;;;52.67;23.45;;;;;;;-1.19;100.00;103025.50;5050555;28;20048;-83
2022/01/19 02:24:15;;;;;;;55.80;24.27;;;;;;;-1.19;100.00;103028.94;5051725;28;20056;-83
2022/01/19 02:27:03;;;;;;;58.60;25.40;;;;;;;-1.18;100.00;103029.81;5051864;28;20111;-84
2022/01/19 02:40:27;;;;;;;54.90;24.80;;;;;;;-1.31;100.00;102954.03;5044258;28;20055;-83
2022/01/19 02:50:54;;;;;;;;;;;;;;;-1.37;100.00;102938.31;5051127;28;20524;-83
2022/01/19 02:53:20;;;;;;;54.17;24.67;;;;;;;-1.44;100.00;102931.03;5051995;28;19917;-83
2022/01/19 02:55:46;;;;;;;57.28;27.00;;;;;;;-1.46;100.00;102941.19;5050734;28;20388;-83
2022/01/19 02:58:13;;;;;;;53.08;25.65;;;;;;;-1.42;100.00;102944.81;5051423;28;20659;-83
2022/01/19 03:08:55;;;;;;;55.70;25.85;;;;;;;-1.56;100.00;102925.22;5055723;28;20500;-83
2022/01/19 03:11:20;;;;;;;63.58;27.45;;;;;;;-1.59;100.00;102918.25;5054917;28;20033;-83
2022/01/19 03:13:47;;;;;;;62.08;28.30;;;;;;;-1.61;100.00;102907.03;5055249;28;20526;-83
2022/01/19 03:16:13;;;;;;;58.80;26.92;;;;;;;-1.62;100.00;102912.94;5055173;28;20464;-83
2022/01/19 03:18:39;;;;;;;61.17;26.08;;;;;;;-1.69;100.00;102901.47;5054685;28;20027;-83
2022/01/19 03:21:05;;;;;;;57.28;27.17;;;;;;;-1.69;100.00;102910.81;5054773;28;20092;-84
2022/01/19 03:23:31;;;;;;;61.15;27.38;;;;;;;-1.76;100.00;102894.22;5054890;28;20021;-83
2022/01/19 03:25:57;;;;;;;59.28;26.35;;;;;;;-1.76;100.00;102901.03;5059740;28;20400;-83
2022/01/19 03:28:23;;;;;;;61.97;27.58;;;;;;;-1.81;100.00;102887.94;5051638;28;20049;-83
2022/01/19 03:30:48;;;;;;;63.17;27.38;;;;;;;-1.80;100.00;102888.81;5040358;28;20080;-83
2022/01/19 03:33:14;;;;;;;61.70;27.40;;;;;;;-1.79;100.00;102886.38;5043640;28;20495;-83
2022/01/19 03:35:39;;;;;;;64.45;27.80;;;;;;;-1.80;100.00;102876.03;5038585;28;20040;-83
2022/01/19 03:38:06;;;;;;;65.28;28.20;;;;;;;-1.83;100.00;102873.28;5046453;28;20108;-83
2022/01/19 03:40:32;;;;;;;65.13;27.40;;;;;;;-1.88;100.00;102873.03;5039214;28;20083;-83
2022/01/19 03:42:57;;;;;;;62.50;26.10;;;;;;;-1.92;100.00;102866.84;5052842;28;20495;-83
2022/01/19 03:45:22;;;;;;;59.97;26.08;;;;;;;-1.94;100.00;102865.88;5054006;28;20079;-83
2022/01/19 03:47:55;;;;;;;53.75;26.00;;;;;;;-1.96;100.00;102862.38;5054912;28;20025;-83
2022/01/19 03:50:21;;;;;;;51.03;25.98;;;;;;;-1.97;100.00;102850.34;5054980;28;20123;-83
2022/01/19 03:52:46;;;;;;;60.80;27.73;;;;;;;-1.95;100.00;102853.88;5053650;28;20440;-83
2022/01/19 03:55:11;;;;;;;58.60;25.80;;;;;;;-1.93;100.00;102839.53;5053852;28;20162;-83
2022/01/19 03:57:37;;;;;;;60.08;27.25;;;;;;;-1.92;100.00;102830.19;5054379;28;20051;-83
2022/01/19 04:00:07;;;;;;;56.03;26.60;;;;;;;-1.92;100.00;102825.94;5053197;28;20061;-83
2022/01/19 04:02:34;;;;;;;65.25;26.45;;;;;;;-1.92;100.00;102823.41;5053948;28;20047;-83
2022/01/19 04:05:06;;;;;;;69.57;29.10;;;;;;;-1.90;100.00;102815.81;5053995;28;20036;-82
2022/01/19 04:07:32;;;;;;;55.95;26.10;;;;;;;-1.91;100.00;102829.38;5053469;28;20037;-83
2022/01/19 04:09:57;;;;;;;63.38;28.70;;;;;;;-1.92;100.00;102819.97;5053716;28;20100;-83
2022/01/19 04:12:44;;;;;;;59.55;28.70;;;;;;;-1.92;100.00;102822.53;5054493;28;20078;-83
2022/01/19 04:15:11;;;;;;;64.25;27.23;;;;;;;-1.92;100.00;102810.63;5051656;28;20461;-82
2022/01/19 04:17:41;;;;;;;61.60;27.42;;;;;;;-1.92;100.00;102814.84;5053613;28;20017;-83
2022/01/19 04:20:06;;;;;;;60.50;26.98;;;;;;;-1.92;100.00;102809.75;5053545;28;20029;-84
2022/01/19 04:22:32;;;;;;;58.55;26.45;;;;;;;-1.89;100.00;102804.81;5053374;28;20112;-83
2022/01/19 04:24:57;;;;;;;60.20;27.83;;;;;;;-1.90;100.00;102806.47;5053669;28;20480;-83
2022/01/19 04:30:00;;;;;;;93.85;36.30;;;;;;;-1.72;100.00;102803.22;5053627;28;20044;-84
2022/01/19 04:32:41;;;;;;;99.40;37.10;;;;;;;-1.59;100.00;102799.69;5053571;28;20029;-82
2022/01/19 04:35:09;;;;;;;105.97;38.55;;;;;;;-1.40;100.00;102799.97;5052600;28;20044;-84
2022/01/19 05:02:24;;;;;;;126.32;39.75;;;;;;;-0.91;100.00;102809.50;5053260;28;19973;-84
2022/01/19 05:04:58;;;;;;;144.45;43.28;;;;;;;-0.84;100.00;102799.66;5052794;28;20294;-84
2022/01/19 05:07:30;;;;;;;140.48;43.67;;;;;;;-0.82;100.00;102790.41;5053573;28;20029;-84
2022/01/19 05:15:23;;;;;;;120.43;39.38;;;;;;;-0.79;100.00;102785.41;5053295;28;20174;-84
2022/01/19 05:17:48;;;;;;;147.90;44.42;;;;;;;-0.87;100.00;102779.00;5052575;28;20457;-84
2022/01/19 05:20:14;;;;;;;131.07;41.25;;;;;;;-0.83;100.00;102791.16;5052879;28;20058;-84
2022/01/19 05:22:39;;;;;;;116.40;41.35;;;;;;;-0.83;100.00;102790.28;5052818;28;20372;-84
2022/01/19 05:25:05;;;;;;;117.07;39.40;;;;;;;-0.88;100.00;102779.81;5052092;28;20021;-84
2022/01/19 05:27:30;;;;;;;121.80;40.63;;;;;;;-0.92;100.00;102792.34;5052506;28;20021;-84
2022/01/19 05:29:56;;;;;;;109.70;38.90;;;;;;;-0.92;100.00;102798.34;5052949;28;20028;-84
2022/01/19 05:32:22;;;;;;;109.78;38.95;;;;;;;-0.97;100.00;102794.66;5052451;28;20394;-84
2022/01/19 05:34:47;;;;;;;104.10;39.42;;;;;;;-0.97;100.00;102794.66;5052778;28;20039;-84
2022/01/19 05:37:12;;;;;;;115.40;39.75;;;;;;;-0.99;100.00;102791.13;5052427;28;20195;-84
2022/01/19 05:39:37;;;;;;;118.90;42.10;;;;;;;-0.96;100.00;102787.06;5052103;28;20033;-84
2022/01/19 05:42:03;;;;;;;118.10;39.38;;;;;;;-0.84;100.00;102791.97;5052412;28;20027;-84
2022/01/19 05:44:29;;;;;;;110.30;41.67;;;;;;;-0.84;100.00;102776.63;5052827;28;20033;-84
2022/01/19 05:46:54;;;;;;;122.35;41.03;;;;;;;-0.72;100.00;102782.41;5051710;28;20017;-84
2022/01/19 05:49:19;;;;;;;108.93;41.30;;;;;;;-0.63;100.00;102782.00;5052870;28;20021;-84
2022/01/19 05:51:45;;;;;;;114.60;40.30;;;;;;;-0.56;100.00;102772.94;5051733;28;20040;-84
2022/01/19 05:54:11;;;;;;;107.78;40.67;;;;;;;-0.56;100.00;102768.69;5052124;28;20480;-84
2022/01/19 05:56:36;;;;;;;106.03;39.90;;;;;;;-0.53;100.00;102770.56;5053723;28;20420;-84
2022/01/19 05:59:01;;;;;;;99.22;38.80;;;;;;;-0.46;100.00;102770.06;5062172;28;20043;-84
2022/01/19 06:01:27;;;;;;;114.40;39.90;;;;;;;-0.43;100.00;102772.78;5052267;28;20098;-84
2022/01/19 06:03:52;;;;;;;98.47;38.95;;;;;;;-0.39;100.00;102773.84;5052080;28;20171;-85
2022/01/19 06:06:17;;;;;;;103.82;40.25;;;;;;;-0.36;100.00;102772.34;5051274;28;20044;-84
2022/01/19 06:08:45;;;;;;;100.28;37.85;;;;;;;-0.33;100.00;102767.38;5051634;28;20491;-84
2022/01/19 06:11:11;;;;;;;95.28;38.22;;;;;;;-0.29;100.00;102769.28;5051692;28;20032;-85
2022/01/19 06:13:38;;;;;;;98.72;39.55;;;;;;;-0.25;100.00;102767.75;5051340;28;20025;-84
2022/01/19 06:16:04;;;;;;;84.75;35.95;;;;;;;-0.26;100.00;102759.19;5051759;28;20033;-84
2022/01/19 06:18:30;;;;;;;97.53;37.50;;;;;;;-0.21;100.00;102758.53;5051122;28;20558;-84
2022/01/19 06:20:55;;;;;;;98.18;37.72;;;;;;;-0.22;100.00;102749.09;5050612;28;20025;-84
2022/01/19 06:23:20;;;;;;;98.85;38.53;;;;;;;-0.18;100.00;102745.88;5051599;28;20060;-85
2022/01/19 06:25:46;;;;;;;90.88;37.28;;;;;;;-0.16;100.00;102746.84;5051277;28;20082;-84
2022/01/19 06:28:11;;;;;;;96.65;37.83;;;;;;;-0.12;100.00;102753.88;5050431;28;20471;-84
2022/01/19 06:30:37;;;;;;;90.38;36.55;;;;;;;-0.13;100.00;102747.88;5051468;28;20377;-85
2022/01/19 06:33:02;;;;;;;87.78;36.33;;;;;;;-0.14;100.00;102732.41;5051642;28;20392;-85
2022/01/19 06:35:28;;;;;;;93.82;35.55;;;;;;;-0.07;100.00;102734.47;5050608;28;20450;-84
2022/01/19 06:37:53;;;;;;;91.38;35.97;;;;;;;-0.05;100.00;102727.75;5050881;28;20029;-84
2022/01/19 06:40:20;;;;;;;91.95;37.20;;;;;;;-0.06;100.00;102721.75;5050903;28;20021;-84
2022/01/19 06:42:46;;;;;;;88.82;34.72;;;;;;;-0.03;100.00;102726.16;5050602;28;20491;-85
2022/01/19 06:45:13;;;;;;;88.82;34.70;;;;;;;-0.02;100.00;102717.66;5051020;28;20041;-85
2022/01/19 06:47:39;;;;;;;90.22;35.60;;;;;;;0.01;100.00;102715.22;5051578;28;20044;-85
2022/01/19 06:50:06;;;;;;;85.00;35.58;;;;;;;0.02;100.00;102709.28;5050251;28;20440;-85
2022/01/19 06:52:31;;;;;;;90.43;34.75;;;;;;;0.01;100.00;102702.41;5051149;28;20402;-85
2022/01/19 06:54:57;;;;;;;84.03;34.88;;;;;;;0.04;100.00;102707.69;5049994;28;20029;-85
2022/01/19 06:57:22;;;;;;;79.35;33.85;;;;;;;0.05;100.00;102698.31;5051391;28;20033;-85
2022/01/19 06:59:51;;;;;;;79.95;34.58;;;;;;;0.07;100.00;102699.28;5051153;28;20041;-84
2022/01/19 07:02:17;;;;;;;80.18;33.55;;;;;;;0.04;100.00;102697.44;5050652;28;20025;-85
2022/01/19 07:04:48;;;;;;;83.22;33.95;;;;;;;0.06;100.00;102684.69;5051083;28;20115;-85
2022/01/19 07:07:13;;;;;;;82.72;33.42;;;;;;;0.11;100.00;102689.22;5051193;28;20104;-85
2022/01/19 07:09:39;;;;;;;82.82;34.13;;;;;;;0.12;100.00;102685.84;5050272;28;20090;-85
2022/01/19 07:12:05;;;;;;;83.53;33.53;;;;;;;0.13;100.00;102687.63;5050993;28;20048;-85
2022/01/19 07:14:30;;;;;;;77.32;32.83;;;;;;;0.14;100.00;102684.25;5050670;28;20048;-85
2022/01/19 07:16:55;;;;;;;78.50;33.20;;;;;;;0.16;100.00;102685.22;5049819;28;20493;-85
2022/01/19 07:19:20;;;;;;;80.05;33.40;;;;;;;0.16;100.00;102681.75;5051199;28;20033;-85
2022/01/19 07:21:46;;;;;;;78.25;33.20;;;;;;;0.18;100.00;102690.41;5051170;28;20575;-84
2022/01/19 07:24:12;;;;;;;76.65;31.83;;;;;;;0.22;100.00;102682.06;5050075;28;20036;-84
2022/01/19 07:26:37;;;;;;;77.63;32.25;;;;;;;0.20;100.00;102671.72;5050254;28;20057;-84
2022/01/19 07:29:02;;;;;;;76.97;32.42;;;;;;;0.27;100.00;102677.16;5050625;28;20093;-85
2022/01/19 07:31:28;;;;;;;73.72;32.00;;;;;;;0.27;100.00;102680.59;5050112;28;20116;-84
2022/01/19 07:33:53;;;;;;;75.47;33.10;;;;;;;0.29;100.00;102683.22;5050715;28;20412;-85
2022/01/19 07:36:18;;;;;;;77.80;33.13;;;;;;;0.28;100.00;102677.22;5051150;28;20074;-84
2022/01/19 07:38:44;;;;;;;73.28;32.78;;;;;;;0.30;100.00;102673.06;5050313;28;20495;-84
2022/01/19 07:41:09;;;;;;;83.20;33.63;;;;;;;0.32;100.00;102684.25;5050930;28;20040;-86
2022/01/19 07:43:37;;;;;;;71.50;31.58;;;;;;;0.33;100.00;102669.75;5050838;28;20025;-85
2022/01/19 07:46:03;;;;;;;75.28;32.95;;;;;;;0.32;100.00;102665.41;5050101;28;20464;-85
2022/01/19 07:48:28;;;;;;;81.65;32.58;;;;;;;0.34;100.00;102658.69;5050873;28;20044;-84
2022/01/19 07:50:53;;;;;;;73.95;31.58;;;;;;;0.37;100.00;102656.25;5051885;28;20025;-85
2022/01/19 07:53:18;;;;;;;73.20;32.10;;;;;;;0.39;100.00;102655.53;5053475;28;20036;-85
2022/01/19 07:55:45;;;;;;;74.65;31.95;;;;;;;0.38;100.00;102652.88;5053236;28;20037;-85
2022/01/19 07:58:11;;;;;;;77.38;33.70;;;;;;;0.41;100.00;102655.59;5053784;28;20083;-84
2022/01/19 08:00:38;;;;;;;75.78;32.50;;;;;;;0.46;100.00;102661.84;5054141;28;20411;-84
2022/01/19 08:03:04;;;;;;;76.13;31.23;;;;;;;0.46;100.00;102655.00;5044768;28;20084;-83
2022/01/19 08:05:29;;;;;;;74.72;30.95;;;;;;;0.47;100.00;102658.44;5035998;28;20829;-83
2022/01/19 08:07:55;;;;;;;78.60;32.28;;;;;;;0.51;100.00;102654.34;5054177;28;20035;-84
2022/01/19 08:10:20;;;;;;;78.60;32.83;;;;;;;0.53;100.00;102647.59;5054792;28;20055;-84
2022/01/19 08:12:46;;;;;;;71.03;30.33;;;;;;;0.56;100.00;102650.31;5053780;28;20435;-84
2022/01/19 08:15:11;;;;;;;71.82;31.55;;;;;;;0.53;100.00;102643.34;5054025;28;20043;-84
2022/01/19 08:17:37;;;;;;;79.15;31.85;;;;;;;0.58;100.00;102644.41;5054146;28;20028;-83
2022/01/19 08:20:02;;;;;;;69.53;30.00;;;;;;;0.58;100.00;102646.97;5053029;28;20079;-84
2022/01/19 08:22:28;;;;;;;71.07;30.85;;;;;;;0.57;100.00;102634.97;5053627;28;20530;-84
2022/01/19 08:24:53;;;;;;;69.80;30.45;;;;;;;0.62;100.00;102638.63;5053921;28;20119;-84
2022/01/19 08:27:18;;;;;;;69.43;30.67;;;;;;;0.60;100.00;102624.84;5052169;28;20029;-83
2022/01/19 08:29:44;;;;;;;71.72;30.67;;;;;;;0.66;100.00;102626.81;5053965;28;20024;-83
2022/01/19 08:32:09;;;;;;;72.07;30.55;;;;;;;0.67;100.00;102631.13;5053799;28;20125;-83
2022/01/19 08:34:35;;;;;;;64.05;30.10;;;;;;;0.72;100.00;102628.75;5052907;28;20178;-83
2022/01/19 08:37:02;;;;;;;73.28;31.67;;;;;;;0.70;100.00;102621.88;5053737;28;20471;-84
2022/01/19 08:39:27;;;;;;;75.82;31.90;;;;;;;0.71;100.00;102620.19;5053391;28;20491;-83
2022/01/19 08:41:53;;;;;;;64.07;29.92;;;;;;;0.76;100.00;102615.28;5053234;28;20111;-84
2022/01/19 08:44:21;;;;;;;72.30;31.05;;;;;;;0.79;100.00;102625.69;5053392;28;20052;-83
2022/01/19 08:46:46;;;;;;;60.05;28.50;;;;;;;0.76;100.00;102605.00;5053082;28;20036;-83
2022/01/19 08:49:12;;;;;;;66.88;29.20;;;;;;;0.84;100.00;102613.91;5052444;28;20070;-84
2022/01/19 08:51:38;;;;;;;71.43;30.88;;;;;;;0.89;100.00;102613.31;5053938;28;20404;-83
2022/01/19 08:54:03;;;;;;;66.65;28.65;;;;;;;0.90;100.00;102599.66;5053666;28;20143;-83
2022/01/19 08:56:29;;;;;;;69.22;30.23;;;;;;;0.95;100.00;102602.44;5051253;28;20078;-84
2022/01/19 08:58:55;;;;;;;68.72;28.58;;;;;;;0.94;100.00;102595.53;5052438;28;20036;-84
2022/01/19 09:01:20;;;;;;;63.35;28.38;;;;;;;1.01;100.00;102597.56;5053075;28;20485;-83
2022/01/19 09:03:45;;;;;;;62.15;28.77;;;;;;;1.01;100.00;102595.00;5053894;28;20032;-83
2022/01/19 09:06:11;;;;;;;67.97;30.48;;;;;;;1.02;100.00;102589.06;5062016;28;20083;-83
2022/01/19 09:08:36;;;;;;;66.65;29.83;;;;;;;1.06;100.00;102575.53;5072791;28;20027;-83
2022/01/19 09:11:02;;;;;;;59.47;29.23;;;;;;;1.13;100.00;102586.94;5060170;28;20039;-84
2022/01/19 09:13:28;;;;;;;62.13;27.77;;;;;;;1.14;100.00;102583.56;5053413;28;20071;-83
2022/01/19 09:15:53;;;;;;;58.92;27.45;;;;;;;1.16;100.00;102576.81;5052495;28;20025;-84
2022/01/19 09:18:19;;;;;;;59.28;28.83;;;;;;;1.19;100.00;102578.63;5052974;28;20116;-84
2022/01/19 09:20:44;;;;;;;57.78;28.27;;;;;;;1.21;100.00;102580.47;5053197;28;20025;-84
2022/01/19 09:23:10;;;;;;;61.25;28.55;;;;;;;1.24;100.00;102575.41;5052057;28;20024;-83
2022/01/19 09:25:35;;;;;;;63.22;29.13;;;;;;;1.25;100.00;102577.19;5052948;28;20064;-84
2022/01/19 09:28:01;;;;;;;63.25;27.67;;;;;;;1.27;100.00;102578.13;5052559;28;20045;-83
2022/01/19 09:30:26;;;;;;;58.58;28.35;;;;;;;1.26;100.00;102572.94;5052168;28;20070;-83
2022/01/19 09:32:56;;;;;;;59.63;27.17;;;;;;;1.26;100.00;102576.38;5052895;28;20039;-83
2022/01/19 09:35:25;;;;;;;61.00;27.58;;;;;;;1.27;100.00;102567.84;5052883;28;20377;-84
2022/01/19 09:37:51;;;;;;;58.10;27.60;;;;;;;1.30;100.00;102561.97;5052390;28;20025;-84
2022/01/19 09:40:16;;;;;;;64.22;28.10;;;;;;;1.32;100.00;102558.66;5052590;28;20079;-84
2022/01/19 09:42:47;;;;;;;67.35;28.90;;;;;;;1.36;100.00;102565.66;5052769;28;20017;-83
2022/01/19 09:45:12;;;;;;;55.95;26.67;;;;;;;1.38;100.00;102563.19;5051593;28;20441;-83
2022/01/19 09:47:38;;;;;;;55.97;27.60;;;;;;;1.41;100.00;102547.88;5052373;28;20032;-83
2022/01/19 09:50:04;;;;;;;58.17;26.67;;;;;;;1.40;100.00;102543.53;5054491;28;20028;-83
2022/01/19 09:52:31;;;;;;;58.92;27.70;;;;;;;1.41;100.00;102522.19;5061701;28;20079;-83
2022/01/19 09:54:56;;;;;;;58.72;28.13;;;;;;;1.47;100.00;102525.00;5052141;28;20029;-83
2022/01/19 09:57:22;;;;;;;57.47;26.65;;;;;;;1.47;100.00;102522.44;5052533;28;20472;-84
2022/01/19 09:59:47;;;;;;;53.97;27.45;;;;;;;1.54;100.00;102528.72;5051593;28;20116;-83
2022/01/19 10:02:14;;;;;;;53.47;26.83;;;;;;;1.58;100.00;102520.31;5052223;28;20033;-83
2022/01/19 10:04:42;;;;;;;56.08;27.55;;;;;;;1.60;100.00;102516.97;5052103;28;20453;-84
2022/01/19 10:07:20;;;;;;;56.10;26.20;;;;;;;1.66;100.00;102512.88;5051615;28;20017;-84
2022/01/19 10:09:58;;;;;;;51.83;26.77;;;;;;;1.73;100.00;102514.88;5052398;28;20086;-83
2022/01/19 10:18:22;;;;;;;50.67;25.00;;;;;;;1.81;100.00;102504.09;5052793;28;20100;-84
2022/01/19 10:21:12;;;;;;;49.03;24.58;;;;;;;1.82;100.00;102499.81;5051314;28;20057;-83
2022/01/19 10:23:40;;;;;;;56.67;26.20;;;;;;;1.88;100.00;102515.47;5052082;28;20021;-84
2022/01/19 10:26:09;;;;;;;46.83;24.75;;;;;;;1.88;100.00;102513.78;5051185;28;20079;-84
2022/01/19 10:28:54;;;;;;;53.67;25.40;;;;;;;1.96;100.00;102508.97;5051598;28;20080;-84
2022/01/19 10:31:19;;;;;;;48.35;25.20;;;;;;;1.99;100.00;102498.75;5051975;28;20087;-84
2022/01/19 10:34:18;;;;;;;47.88;24.60;;;;;;;2.04;100.00;102486.09;5051155;28;20056;-83
2022/01/19 10:36:44;;;;;;;48.08;24.80;;;;;;;2.08;100.00;102493.97;5045725;28;20034;-83
2022/01/19 10:39:10;;;;;;;46.95;25.25;;;;;;;2.13;100.00;102486.44;5042443;28;20037;-84
2022/01/19 10:41:55;;;;;;;57.28;25.70;;;;;;;2.18;100.00;102473.72;5050119;28;20033;-84
2022/01/19 10:44:41;;;;;;;48.45;24.15;;;;;;;2.23;100.00;102467.94;5050358;28;20017;-84
2022/01/19 10:47:07;;;;;;;43.45;24.23;;;;;;;2.27;100.00;102461.22;5032456;28;20049;-84
2022/01/19 10:49:54;;;;;;;46.28;24.90;;;;;;;2.34;100.00;102465.75;5045927;28;20029;-83
2022/01/19 10:52:40;;;;;;;48.08;25.02;;;;;;;2.34;100.00;102456.31;5051485;28;20025;-83
2022/01/19 10:55:12;;;;;;;46.65;25.15;;;;;;;2.35;100.00;102457.19;5050664;28;20032;-83
2022/01/19 10:57:41;;;;;;;42.53;24.23;;;;;;;2.38;100.00;102472.75;5055922;28;20059;-84
2022/01/19 11:00:21;;;;;;;41.78;23.15;;;;;;;2.37;100.00;102471.00;5050552;28;20036;-83
2022/01/19 11:02:49;;;;;;;39.90;22.75;;;;;;;2.35;100.00;102462.34;5043000;28;20033;-84
2022/01/19 11:05:16;;;;;;;46.20;23.80;;;;;;;2.29;100.00;102455.31;5046575;28;20025;-84
2022/01/19 11:07:42;;;;;;;46.22;24.30;;;;;;;2.34;100.00;102456.31;5041442;28;20388;-84
2022/01/19 11:10:17;;;;;;;42.90;23.60;;;;;;;2.31;100.00;102442.47;5044366;28;20029;-84
2022/01/19 11:12:48;;;;;;;50.08;24.80;;;;;;;2.41;100.00;102448.81;5039252;28;20033;-83
2022/01/19 11:15:18;;;;;;;42.30;23.95;;;;;;;2.39;100.00;102440.16;5049741;28;20037;-84
2022/01/19 11:17:45;;;;;;;47.10;24.98;;;;;;;2.43;100.00;102444.63;5042917;28;20029;-83
2022/01/19 11:20:13;;;;;;;46.40;25.33;;;;;;;2.33;100.00;102417.69;5046614;28;20033;-83
2022/01/19 11:22:53;;;;;;;43.10;23.02;;;;;;;2.43;100.00;102424.91;5050068;28;20068;-85
2022/01/19 11:25:45;;;;;;;48.72;24.42;;;;;;;2.41;100.00;102413.66;5033065;28;20417;-84
2022/01/19 11:28:10;;;;;;;45.05;24.88;;;;;;;2.39;100.00;102420.47;5036378;28;20045;-83
2022/01/19 11:30:35;;;;;;;45.63;23.95;;;;;;;2.39;100.00;102412.75;5051778;28;20388;-83
2022/01/19 11:33:13;;;;;;;50.40;25.88;;;;;;;2.40;100.00;102411.03;5042901;28;20033;-83
2022/01/19 11:35:41;;;;;;;50.72;25.25;;;;;;;2.40;100.00;102409.34;5036569;28;20045;-83
2022/01/19 11:38:34;;;;;;;47.28;25.70;;;;;;;2.41;100.00;102393.06;5050003;28;20029;-83
2022/01/19 11:41:21;;;;;;;46.35;25.80;;;;;;;2.44;100.00;102389.72;5035891;28;20025;-83
2022/01/19 11:43:52;;;;;;;47.22;25.73;;;;;;;2.37;100.00;102364.59;5034675;28;20037;-84
2022/01/19 11:46:40;;;;;;;48.67;25.98;;;;;;;2.48;100.00;102377.00;5034889;28;20087;-83
2022/01/19 11:49:09;;;;;;;48.63;26.05;;;;;;;2.45;100.00;102364.06;5046140;28;20075;-83
2022/01/19 11:51:42;;;;;;;49.60;26.27;;;;;;;2.44;100.00;102362.28;5053943;28;20052;-83
2022/01/19 11:54:15;;;;;;;48.22;26.48;;;;;;;2.48;100.00;102364.13;5054119;28;20021;-83
2022/01/19 11:56:59;;;;;;;51.42;26.65;;;;;;;2.49;100.00;102354.75;5051903;28;20029;-83
2022/01/19 11:59:30;;;;;;;51.58;27.20;;;;;;;2.50;100.00;102359.06;5047328;28;20128;-83
2022/01/19 12:02:36;;;;;;;46.83;26.65;;;;;;;2.50;100.00;102343.59;5053252;28;20029;-83
2022/01/19 12:05:04;;;;;;;51.10;26.77;;;;;;;2.50;100.00;102346.19;5033539;28;20049;-83
2022/01/19 12:07:52;;;;;;;52.67;28.33;;;;;;;2.50;100.00;102341.03;5034767;28;20112;-83
2022/01/19 12:10:20;;;;;;;47.72;27.15;;;;;;;2.49;100.00;102329.88;5043337;28;20033;-83
2022/01/19 12:13:26;;;;;;;57.90;29.23;;;;;;;2.55;100.00;102329.16;5053566;28;20485;-84
2022/01/19 12:16:03;;;;;;;52.35;28.73;;;;;;;2.54;100.00;102325.72;5052472;28;20036;-85
2022/01/19 12:18:43;;;;;;;54.42;29.25;;;;;;;2.56;100.00;102325.78;5041209;28;20375;-83
2022/01/19 12:21:15;;;;;;;55.05;29.55;;;;;;;2.53;100.00;102305.09;5043564;28;20040;-84
2022/01/19 12:23:42;;;;;;;54.55;30.23;;;;;;;2.60;100.00;102313.91;5054072;28;20033;-85
2022/01/19 12:26:09;;;;;;;55.15;29.27;;;;;;;2.67;100.00;102297.81;5035090;28;20044;-84
2022/01/19 12:28:45;;;;;;;55.63;31.52;;;;;;;2.78;100.00;102283.59;5034024;28;20098;-85